sensor_id;sensor_type;location;lat;lon;timestamp;P1;durP1;ratioP1;P2;durP2;ratioP2
938;SDS011;456;53.584;9.968;2022-11-20T00:00:50;5.53;;;5.03;;
938;SDS011;456;53.584;9.968;2022-11-20T00:03:16;5.57;;;5.10;;
938;SDS011;456;53.584;9.968;2022-11-20T00:05:42;6.03;;;5.43;;
938;SDS011;456;53.584;9.968;2022-11-20T00:08:08;5.47;;;5.00;;
938;SDS011;456;53.584;9.968;2022-11-20T00:10:35;5.77;;;5.23;;
938;SDS011;456;53.584;9.968;2022-11-20T00:13:01;5.80;;;5.30;;
938;SDS011;456;53.584;9.968;2022-11-20T00:15:27;4.80;;;4.40;;
938;SDS011;456;53.584;9.968;2022-11-20T00:17:53;5.73;;;5.27;;
938;SDS011;456;53.584;9.968;2022-11-20T00:20:18;4.73;;;4.33;;
938;SDS011;456;53.584;9.968;2022-11-20T00:22:44;5.13;;;4.73;;
938;SDS011;456;53.584;9.968;2022-11-20T00:25:09;5.50;;;5.00;;
938;SDS011;456;53.584;9.968;2022-11-20T00:27:36;4.97;;;4.57;;
938;SDS011;456;53.584;9.968;2022-11-20T00:30:02;5.30;;;4.90;;
938;SDS011;456;53.584;9.968;2022-11-20T00:32:28;5.10;;;4.70;;
938;SDS011;456;53.584;9.968;2022-11-20T00:34:54;5.80;;;5.30;;
938;SDS011;456;53.584;9.968;2022-11-20T00:37:20;5.00;;;4.27;;
938;SDS011;456;53.584;9.968;2022-11-20T00:39:45;5.90;;;5.30;;
938;SDS011;456;53.584;9.968;2022-11-20T00:42:11;5.50;;;5.00;;
938;SDS011;456;53.584;9.968;2022-11-20T00:44:37;5.13;;;4.73;;
938;SDS011;456;53.584;9.968;2022-11-20T00:47:02;5.80;;;5.30;;
938;SDS011;456;53.584;9.968;2022-11-20T00:49:28;5.43;;;5.03;;
938;SDS011;456;53.584;9.968;2022-11-20T00:51:53;5.07;;;4.60;;
938;SDS011;456;53.584;9.968;2022-11-20T00:54:19;4.93;;;4.50;;
938;SDS011;456;53.584;9.968;2022-11-20T00:56:45;4.97;;;4.57;;
938;SDS011;456;53.584;9.968;2022-11-20T00:59:10;4.73;;;4.33;;
938;SDS011;456;53.584;9.968;2022-11-20T01:01:36;5.43;;;4.93;;
938;SDS011;456;53.584;9.968;2022-11-20T01:04:02;4.17;;;3.87;;
938;SDS011;456;53.584;9.968;2022-11-20T01:06:32;4.80;;;4.50;;
938;SDS011;456;53.584;9.968;2022-11-20T01:09:00;4.53;;;4.23;;
938;SDS011;456;53.584;9.968;2022-11-20T01:11:36;4.83;;;4.43;;
938;SDS011;456;53.584;9.968;2022-11-20T01:14:03;4.53;;;4.13;;
938;SDS011;456;53.584;9.968;2022-11-20T01:16:32;4.70;;;4.30;;
938;SDS011;456;53.584;9.968;2022-11-20T01:19:03;4.60;;;4.30;;
938;SDS011;456;53.584;9.968;2022-11-20T01:21:31;4.57;;;4.17;;
938;SDS011;456;53.584;9.968;2022-11-20T01:23:59;4.07;;;3.77;;
938;SDS011;456;53.584;9.968;2022-11-20T01:26:28;4.40;;;4.00;;
938;SDS011;456;53.584;9.968;2022-11-20T01:28:56;4.10;;;3.80;;
938;SDS011;456;53.584;9.968;2022-11-20T01:31:27;3.80;;;3.50;;
938;SDS011;456;53.584;9.968;2022-11-20T01:34:01;4.27;;;3.90;;
938;SDS011;456;53.584;9.968;2022-11-20T01:36:32;4.67;;;4.27;;
938;SDS011;456;53.584;9.968;2022-11-20T01:39:01;4.20;;;3.90;;
938;SDS011;456;53.584;9.968;2022-11-20T01:41:30;4.40;;;3.97;;
938;SDS011;456;53.584;9.968;2022-11-20T01:44:16;4.50;;;4.10;;
938;SDS011;456;53.584;9.968;2022-11-20T01:47:00;4.00;;;3.70;;
938;SDS011;456;53.584;9.968;2022-11-20T01:49:32;4.10;;;3.80;;
938;SDS011;456;53.584;9.968;2022-11-20T01:52:04;4.67;;;4.27;;
938;SDS011;456;53.584;9.968;2022-11-20T01:54:35;5.03;;;4.53;;
938;SDS011;456;53.584;9.968;2022-11-20T01:57:04;4.33;;;3.93;;
938;SDS011;456;53.584;9.968;2022-11-20T01:59:34;3.70;;;3.40;;
938;SDS011;456;53.584;9.968;2022-11-20T02:02:08;3.80;;;3.50;;
938;SDS011;456;53.584;9.968;2022-11-20T02:04:34;4.10;;;3.80;;
938;SDS011;456;53.584;9.968;2022-11-20T02:07:00;3.93;;;3.53;;
938;SDS011;456;53.584;9.968;2022-11-20T02:09:27;4.20;;;3.80;;
938;SDS011;456;53.584;9.968;2022-11-20T02:11:53;4.00;;;3.70;;
938;SDS011;456;53.584;9.968;2022-11-20T02:14:19;4.23;;;3.83;;
938;SDS011;456;53.584;9.968;2022-11-20T02:16:47;3.70;;;3.40;;
938;SDS011;456;53.584;9.968;2022-11-20T02:19:28;4.00;;;3.70;;
938;SDS011;456;53.584;9.968;2022-11-20T02:21:59;4.80;;;3.50;;
938;SDS011;456;53.584;9.968;2022-11-20T02:24:38;3.97;;;3.67;;
938;SDS011;456;53.584;9.968;2022-11-20T02:27:09;5.30;;;3.97;;
938;SDS011;456;53.584;9.968;2022-11-20T02:29:48;4.33;;;4.03;;
938;SDS011;456;53.584;9.968;2022-11-20T02:32:20;4.13;;;3.77;;
938;SDS011;456;53.584;9.968;2022-11-20T02:34:48;4.50;;;4.10;;
938;SDS011;456;53.584;9.968;2022-11-20T02:37:14;3.50;;;3.20;;
938;SDS011;456;53.584;9.968;2022-11-20T02:39:40;4.03;;;3.73;;
938;SDS011;456;53.584;9.968;2022-11-20T02:42:08;3.53;;;3.23;;
938;SDS011;456;53.584;9.968;2022-11-20T02:44:33;3.63;;;3.33;;
938;SDS011;456;53.584;9.968;2022-11-20T02:46:59;3.60;;;3.30;;
938;SDS011;456;53.584;9.968;2022-11-20T02:49:24;4.60;;;4.20;;
938;SDS011;456;53.584;9.968;2022-11-20T02:51:50;4.43;;;4.00;;
938;SDS011;456;53.584;9.968;2022-11-20T02:54:16;4.40;;;4.03;;
938;SDS011;456;53.584;9.968;2022-11-20T02:56:42;3.97;;;3.67;;
938;SDS011;456;53.584;9.968;2022-11-20T02:59:08;4.03;;;3.73;;
938;SDS011;456;53.584;9.968;2022-11-20T03:01:34;4.20;;;3.67;;
938;SDS011;456;53.584;9.968;2022-11-20T03:04:00;4.20;;;3.73;;
938;SDS011;456;53.584;9.968;2022-11-20T03:06:26;3.97;;;3.67;;
938;SDS011;456;53.584;9.968;2022-11-20T03:08:52;3.37;;;3.07;;
938;SDS011;456;53.584;9.968;2022-11-20T03:11:17;4.40;;;4.10;;
938;SDS011;456;53.584;9.968;2022-11-20T03:13:43;4.37;;;3.60;;
938;SDS011;456;53.584;9.968;2022-11-20T03:16:09;4.03;;;3.63;;
938;SDS011;456;53.584;9.968;2022-11-20T03:18:37;4.13;;;3.83;;
938;SDS011;456;53.584;9.968;2022-11-20T03:21:03;4.07;;;3.67;;
938;SDS011;456;53.584;9.968;2022-11-20T03:23:30;4.10;;;3.80;;
938;SDS011;456;53.584;9.968;2022-11-20T03:26:06;3.60;;;3.40;;
938;SDS011;456;53.584;9.968;2022-11-20T03:28:33;4.30;;;4.00;;
938;SDS011;456;53.584;9.968;2022-11-20T03:31:04;3.90;;;3.60;;
938;SDS011;456;53.584;9.968;2022-11-20T03:33:30;3.43;;;3.17;;
938;SDS011;456;53.584;9.968;2022-11-20T03:36:00;3.20;;;3.00;;
938;SDS011;456;53.584;9.968;2022-11-20T03:38:28;3.93;;;3.63;;
938;SDS011;456;53.584;9.968;2022-11-20T03:40:59;3.93;;;3.63;;
938;SDS011;456;53.584;9.968;2022-11-20T03:43:30;3.90;;;3.50;;
938;SDS011;456;53.584;9.968;2022-11-20T03:45:56;4.20;;;3.90;;
938;SDS011;456;53.584;9.968;2022-11-20T03:48:22;4.10;;;3.80;;
938;SDS011;456;53.584;9.968;2022-11-20T03:50:47;4.00;;;3.70;;
938;SDS011;456;53.584;9.968;2022-11-20T03:53:14;4.37;;;3.97;;
938;SDS011;456;53.584;9.968;2022-11-20T03:55:40;4.57;;;4.17;;
938;SDS011;456;53.584;9.968;2022-11-20T03:58:06;3.93;;;3.60;;
938;SDS011;456;53.584;9.968;2022-11-20T04:00:31;3.17;;;2.87;;
938;SDS011;456;53.584;9.968;2022-11-20T04:03:00;4.10;;;3.70;;
938;SDS011;456;53.584;9.968;2022-11-20T04:05:26;4.73;;;4.33;;
938;SDS011;456;53.584;9.968;2022-11-20T04:07:52;4.40;;;3.97;;
938;SDS011;456;53.584;9.968;2022-11-20T04:10:18;5.10;;;4.70;;
938;SDS011;456;53.584;9.968;2022-11-20T04:12:43;7.20;;;4.23;;
938;SDS011;456;53.584;9.968;2022-11-20T04:15:09;4.53;;;4.13;;
938;SDS011;456;53.584;9.968;2022-11-20T04:17:35;5.40;;;4.30;;
938;SDS011;456;53.584;9.968;2022-11-20T04:20:01;5.43;;;4.93;;
938;SDS011;456;53.584;9.968;2022-11-20T04:22:27;5.27;;;4.77;;
938;SDS011;456;53.584;9.968;2022-11-20T04:24:52;5.57;;;5.07;;
938;SDS011;456;53.584;9.968;2022-11-20T04:27:18;5.80;;;5.20;;
938;SDS011;456;53.584;9.968;2022-11-20T04:29:44;8.30;;;6.17;;
938;SDS011;456;53.584;9.968;2022-11-20T04:32:09;9.00;;;7.30;;
938;SDS011;456;53.584;9.968;2022-11-20T04:34:35;9.13;;;6.77;;
938;SDS011;456;53.584;9.968;2022-11-20T04:37:01;7.60;;;6.90;;
938;SDS011;456;53.584;9.968;2022-11-20T04:39:26;12.47;;;8.10;;
938;SDS011;456;53.584;9.968;2022-11-20T04:41:52;9.07;;;7.67;;
938;SDS011;456;53.584;9.968;2022-11-20T04:44:37;8.10;;;6.83;;
938;SDS011;456;53.584;9.968;2022-11-20T04:47:03;8.20;;;7.23;;
938;SDS011;456;53.584;9.968;2022-11-20T04:49:28;8.93;;;8.03;;
938;SDS011;456;53.584;9.968;2022-11-20T04:51:54;10.00;;;7.40;;
938;SDS011;456;53.584;9.968;2022-11-20T04:54:20;11.07;;;7.47;;
938;SDS011;456;53.584;9.968;2022-11-20T04:56:49;8.80;;;7.50;;
938;SDS011;456;53.584;9.968;2022-11-20T04:59:14;9.10;;;7.83;;
938;SDS011;456;53.584;9.968;2022-11-20T05:01:40;10.07;;;8.50;;
938;SDS011;456;53.584;9.968;2022-11-20T05:04:06;10.20;;;8.57;;
938;SDS011;456;53.584;9.968;2022-11-20T05:06:31;10.77;;;8.37;;
938;SDS011;456;53.584;9.968;2022-11-20T05:08:57;10.13;;;8.67;;
938;SDS011;456;53.584;9.968;2022-11-20T05:11:23;9.97;;;7.93;;
938;SDS011;456;53.584;9.968;2022-11-20T05:13:50;10.13;;;8.13;;
938;SDS011;456;53.584;9.968;2022-11-20T05:16:20;8.90;;;7.80;;
938;SDS011;456;53.584;9.968;2022-11-20T05:18:49;9.10;;;8.00;;
938;SDS011;456;53.584;9.968;2022-11-20T05:21:16;8.40;;;7.47;;
938;SDS011;456;53.584;9.968;2022-11-20T05:23:42;10.47;;;8.60;;
938;SDS011;456;53.584;9.968;2022-11-20T05:26:12;9.20;;;7.93;;
938;SDS011;456;53.584;9.968;2022-11-20T05:28:42;12.30;;;9.17;;
938;SDS011;456;53.584;9.968;2022-11-20T05:31:12;8.90;;;7.60;;
938;SDS011;456;53.584;9.968;2022-11-20T05:33:40;8.80;;;7.90;;
938;SDS011;456;53.584;9.968;2022-11-20T05:36:07;10.03;;;8.97;;
938;SDS011;456;53.584;9.968;2022-11-20T05:38:33;9.50;;;8.50;;
938;SDS011;456;53.584;9.968;2022-11-20T05:41:09;9.10;;;8.10;;
938;SDS011;456;53.584;9.968;2022-11-20T05:43:37;8.90;;;8.00;;
938;SDS011;456;53.584;9.968;2022-11-20T05:46:04;9.40;;;7.77;;
938;SDS011;456;53.584;9.968;2022-11-20T05:48:32;8.17;;;7.20;;
938;SDS011;456;53.584;9.968;2022-11-20T05:50:58;8.80;;;7.60;;
938;SDS011;456;53.584;9.968;2022-11-20T05:53:25;8.47;;;7.43;;
938;SDS011;456;53.584;9.968;2022-11-20T05:56:01;7.70;;;6.53;;
938;SDS011;456;53.584;9.968;2022-11-20T05:58:32;7.90;;;7.20;;
938;SDS011;456;53.584;9.968;2022-11-20T06:01:08;8.53;;;7.67;;
938;SDS011;456;53.584;9.968;2022-11-20T06:03:34;8.93;;;8.03;;
938;SDS011;456;53.584;9.968;2022-11-20T06:06:00;10.40;;;8.30;;
938;SDS011;456;53.584;9.968;2022-11-20T06:08:27;9.77;;;8.23;;
938;SDS011;456;53.584;9.968;2022-11-20T06:10:53;8.60;;;7.80;;
938;SDS011;456;53.584;9.968;2022-11-20T06:13:19;8.70;;;7.70;;
938;SDS011;456;53.584;9.968;2022-11-20T06:15:50;8.50;;;7.67;;
938;SDS011;456;53.584;9.968;2022-11-20T06:18:17;8.73;;;7.63;;
938;SDS011;456;53.584;9.968;2022-11-20T06:20:44;9.37;;;8.47;;
938;SDS011;456;53.584;9.968;2022-11-20T06:23:09;8.60;;;7.70;;
938;SDS011;456;53.584;9.968;2022-11-20T06:25:39;8.60;;;7.40;;
938;SDS011;456;53.584;9.968;2022-11-20T06:28:06;8.90;;;7.53;;
938;SDS011;456;53.584;9.968;2022-11-20T06:30:32;8.73;;;7.90;;
938;SDS011;456;53.584;9.968;2022-11-20T06:32:57;7.83;;;7.03;;
938;SDS011;456;53.584;9.968;2022-11-20T06:35:23;8.60;;;7.53;;
938;SDS011;456;53.584;9.968;2022-11-20T06:37:48;8.60;;;7.77;;
938;SDS011;456;53.584;9.968;2022-11-20T06:40:14;8.70;;;7.60;;
938;SDS011;456;53.584;9.968;2022-11-20T06:42:40;7.63;;;6.70;;
938;SDS011;456;53.584;9.968;2022-11-20T06:45:07;8.57;;;7.77;;
938;SDS011;456;53.584;9.968;2022-11-20T06:47:33;8.47;;;7.77;;
938;SDS011;456;53.584;9.968;2022-11-20T06:49:58;6.87;;;6.27;;
938;SDS011;456;53.584;9.968;2022-11-20T06:52:24;7.80;;;7.10;;
938;SDS011;456;53.584;9.968;2022-11-20T06:54:49;7.67;;;6.97;;
938;SDS011;456;53.584;9.968;2022-11-20T06:57:15;8.07;;;7.37;;
938;SDS011;456;53.584;9.968;2022-11-20T06:59:41;6.93;;;6.33;;
938;SDS011;456;53.584;9.968;2022-11-20T07:02:09;7.30;;;6.70;;
938;SDS011;456;53.584;9.968;2022-11-20T07:04:36;7.23;;;6.60;;
938;SDS011;456;53.584;9.968;2022-11-20T07:07:01;7.20;;;6.63;;
938;SDS011;456;53.584;9.968;2022-11-20T07:09:27;7.70;;;6.93;;
938;SDS011;456;53.584;9.968;2022-11-20T07:11:52;7.13;;;6.53;;
938;SDS011;456;53.584;9.968;2022-11-20T07:14:18;7.30;;;6.70;;
938;SDS011;456;53.584;9.968;2022-11-20T07:16:43;6.70;;;6.10;;
938;SDS011;456;53.584;9.968;2022-11-20T07:19:09;7.37;;;6.77;;
938;SDS011;456;53.584;9.968;2022-11-20T07:21:35;7.13;;;6.50;;
938;SDS011;456;53.584;9.968;2022-11-20T07:24:00;6.90;;;6.40;;
938;SDS011;456;53.584;9.968;2022-11-20T07:26:26;7.00;;;6.30;;
938;SDS011;456;53.584;9.968;2022-11-20T07:28:51;6.87;;;6.27;;
938;SDS011;456;53.584;9.968;2022-11-20T07:31:17;6.80;;;6.30;;
938;SDS011;456;53.584;9.968;2022-11-20T07:33:42;7.17;;;6.57;;
938;SDS011;456;53.584;9.968;2022-11-20T07:36:08;7.60;;;6.90;;
938;SDS011;456;53.584;9.968;2022-11-20T07:38:34;6.80;;;6.10;;
938;SDS011;456;53.584;9.968;2022-11-20T07:40:59;7.40;;;6.80;;
938;SDS011;456;53.584;9.968;2022-11-20T07:43:26;7.50;;;6.80;;
938;SDS011;456;53.584;9.968;2022-11-20T07:45:54;6.73;;;6.13;;
938;SDS011;456;53.584;9.968;2022-11-20T07:48:21;7.57;;;6.97;;
938;SDS011;456;53.584;9.968;2022-11-20T07:50:46;5.77;;;5.27;;
938;SDS011;456;53.584;9.968;2022-11-20T07:53:12;6.73;;;6.13;;
938;SDS011;456;53.584;9.968;2022-11-20T07:55:38;7.37;;;6.67;;
938;SDS011;456;53.584;9.968;2022-11-20T07:58:04;6.70;;;6.00;;
938;SDS011;456;53.584;9.968;2022-11-20T08:00:30;6.83;;;6.23;;
938;SDS011;456;53.584;9.968;2022-11-20T08:02:55;6.57;;;5.97;;
938;SDS011;456;53.584;9.968;2022-11-20T08:05:21;7.00;;;6.40;;
938;SDS011;456;53.584;9.968;2022-11-20T08:07:46;6.50;;;5.93;;
938;SDS011;456;53.584;9.968;2022-11-20T08:10:13;6.73;;;5.70;;
938;SDS011;456;53.584;9.968;2022-11-20T08:12:47;5.80;;;5.30;;
938;SDS011;456;53.584;9.968;2022-11-20T08:15:32;5.70;;;5.30;;
938;SDS011;456;53.584;9.968;2022-11-20T08:18:08;6.43;;;5.83;;
938;SDS011;456;53.584;9.968;2022-11-20T08:20:36;6.50;;;5.90;;
938;SDS011;456;53.584;9.968;2022-11-20T08:23:03;6.30;;;5.80;;
938;SDS011;456;53.584;9.968;2022-11-20T08:25:33;6.83;;;6.23;;
938;SDS011;456;53.584;9.968;2022-11-20T08:28:00;6.13;;;5.57;;
938;SDS011;456;53.584;9.968;2022-11-20T08:30:28;6.53;;;5.93;;
938;SDS011;456;53.584;9.968;2022-11-20T08:32:54;7.23;;;6.53;;
938;SDS011;456;53.584;9.968;2022-11-20T08:35:25;6.70;;;6.10;;
938;SDS011;456;53.584;9.968;2022-11-20T08:37:51;6.70;;;6.10;;
938;SDS011;456;53.584;9.968;2022-11-20T08:40:16;7.13;;;6.37;;
938;SDS011;456;53.584;9.968;2022-11-20T08:42:46;6.70;;;6.00;;
938;SDS011;456;53.584;9.968;2022-11-20T08:45:15;6.33;;;5.83;;
938;SDS011;456;53.584;9.968;2022-11-20T08:47:42;6.23;;;5.53;;
938;SDS011;456;53.584;9.968;2022-11-20T08:50:12;6.50;;;6.00;;
938;SDS011;456;53.584;9.968;2022-11-20T08:52:39;6.23;;;5.63;;
938;SDS011;456;53.584;9.968;2022-11-20T08:55:05;6.10;;;5.60;;
938;SDS011;456;53.584;9.968;2022-11-20T08:57:35;6.50;;;5.80;;
938;SDS011;456;53.584;9.968;2022-11-20T09:00:02;6.00;;;5.50;;
938;SDS011;456;53.584;9.968;2022-11-20T09:02:30;6.30;;;5.70;;
938;SDS011;456;53.584;9.968;2022-11-20T09:04:55;6.30;;;5.80;;
938;SDS011;456;53.584;9.968;2022-11-20T09:07:21;7.90;;;5.87;;
938;SDS011;456;53.584;9.968;2022-11-20T09:09:47;7.57;;;5.70;;
938;SDS011;456;53.584;9.968;2022-11-20T09:12:12;6.37;;;5.77;;
938;SDS011;456;53.584;9.968;2022-11-20T09:14:38;6.13;;;5.53;;
938;SDS011;456;53.584;9.968;2022-11-20T09:17:04;6.50;;;5.90;;
938;SDS011;456;53.584;9.968;2022-11-20T09:19:29;7.17;;;6.37;;
938;SDS011;456;53.584;9.968;2022-11-20T09:21:55;7.60;;;6.77;;
938;SDS011;456;53.584;9.968;2022-11-20T09:24:20;6.10;;;5.50;;
938;SDS011;456;53.584;9.968;2022-11-20T09:26:46;6.83;;;5.90;;
938;SDS011;456;53.584;9.968;2022-11-20T09:29:12;6.10;;;5.23;;
938;SDS011;456;53.584;9.968;2022-11-20T09:31:37;6.30;;;5.70;;
938;SDS011;456;53.584;9.968;2022-11-20T09:34:03;7.27;;;6.57;;
938;SDS011;456;53.584;9.968;2022-11-20T09:36:28;6.10;;;5.50;;
938;SDS011;456;53.584;9.968;2022-11-20T09:38:54;6.43;;;5.93;;
938;SDS011;456;53.584;9.968;2022-11-20T09:44:19;7.30;;;5.37;;
938;SDS011;456;53.584;9.968;2022-11-20T09:52:52;6.07;;;5.00;;
938;SDS011;456;53.584;9.968;2022-11-20T09:55:38;6.50;;;6.00;;
938;SDS011;456;53.584;9.968;2022-11-20T09:58:13;6.10;;;5.50;;
938;SDS011;456;53.584;9.968;2022-11-20T10:00:46;6.13;;;5.50;;
938;SDS011;456;53.584;9.968;2022-11-20T10:03:14;6.27;;;5.13;;
938;SDS011;456;53.584;9.968;2022-11-20T10:05:45;6.10;;;5.30;;
938;SDS011;456;53.584;9.968;2022-11-20T10:08:20;6.03;;;4.97;;
938;SDS011;456;53.584;9.968;2022-11-20T10:10:48;6.10;;;5.60;;
938;SDS011;456;53.584;9.968;2022-11-20T10:15:56;5.97;;;5.43;;
938;SDS011;456;53.584;9.968;2022-11-20T10:18:51;5.70;;;5.17;;
938;SDS011;456;53.584;9.968;2022-11-20T10:23:59;6.23;;;5.00;;
938;SDS011;456;53.584;9.968;2022-11-20T10:29:17;5.90;;;5.40;;
938;SDS011;456;53.584;9.968;2022-11-20T10:31:45;4.53;;;4.13;;
938;SDS011;456;53.584;9.968;2022-11-20T10:36:52;4.80;;;4.37;;
938;SDS011;456;53.584;9.968;2022-11-20T10:39:46;5.10;;;4.60;;
938;SDS011;456;53.584;9.968;2022-11-20T10:42:30;5.50;;;5.00;;
938;SDS011;456;53.584;9.968;2022-11-20T10:47:49;5.10;;;4.70;;
938;SDS011;456;53.584;9.968;2022-11-20T10:50:20;4.47;;;4.13;;
938;SDS011;456;53.584;9.968;2022-11-20T10:55:33;6.33;;;4.60;;
938;SDS011;456;53.584;9.968;2022-11-20T10:58:08;5.17;;;4.60;;
938;SDS011;456;53.584;9.968;2022-11-20T11:00:39;4.57;;;4.17;;
938;SDS011;456;53.584;9.968;2022-11-20T11:03:20;5.20;;;4.70;;
938;SDS011;456;53.584;9.968;2022-11-20T11:05:58;4.67;;;4.27;;
938;SDS011;456;53.584;9.968;2022-11-20T11:08:34;4.93;;;4.50;;
938;SDS011;456;53.584;9.968;2022-11-20T11:11:07;5.10;;;4.63;;
938;SDS011;456;53.584;9.968;2022-11-20T11:16:31;4.70;;;4.23;;
938;SDS011;456;53.584;9.968;2022-11-20T11:19:06;4.93;;;4.53;;
938;SDS011;456;53.584;9.968;2022-11-20T11:21:36;5.27;;;4.73;;
938;SDS011;456;53.584;9.968;2022-11-20T11:24:14;4.77;;;4.37;;
938;SDS011;456;53.584;9.968;2022-11-20T11:26:59;3.67;;;3.37;;
938;SDS011;456;53.584;9.968;2022-11-20T11:29:29;4.17;;;3.77;;
938;SDS011;456;53.584;9.968;2022-11-20T11:34:43;3.77;;;3.47;;
938;SDS011;456;53.584;9.968;2022-11-20T11:37:13;4.60;;;3.87;;
938;SDS011;456;53.584;9.968;2022-11-20T11:39:43;4.43;;;4.13;;
938;SDS011;456;53.584;9.968;2022-11-20T11:42:12;3.73;;;3.43;;
938;SDS011;456;53.584;9.968;2022-11-20T11:44:46;3.77;;;3.47;;
938;SDS011;456;53.584;9.968;2022-11-20T11:52:40;4.00;;;3.63;;
938;SDS011;456;53.584;9.968;2022-11-20T11:55:19;4.47;;;3.33;;
938;SDS011;456;53.584;9.968;2022-11-20T12:00:41;4.03;;;3.63;;
938;SDS011;456;53.584;9.968;2022-11-20T12:03:14;3.63;;;3.33;;
938;SDS011;456;53.584;9.968;2022-11-20T12:05:48;4.00;;;3.70;;
938;SDS011;456;53.584;9.968;2022-11-20T12:08:31;4.17;;;3.80;;
938;SDS011;456;53.584;9.968;2022-11-20T12:14:09;3.60;;;3.30;;
938;SDS011;456;53.584;9.968;2022-11-20T12:16:51;3.50;;;3.20;;
938;SDS011;456;53.584;9.968;2022-11-20T12:19:18;3.67;;;3.27;;
938;SDS011;456;53.584;9.968;2022-11-20T12:21:59;3.30;;;3.10;;
938;SDS011;456;53.584;9.968;2022-11-20T12:27:26;3.40;;;3.10;;
938;SDS011;456;53.584;9.968;2022-11-20T12:38:33;2.93;;;2.70;;
938;SDS011;456;53.584;9.968;2022-11-20T12:50:17;3.00;;;2.80;;
938;SDS011;456;53.584;9.968;2022-11-20T12:53:23;3.67;;;3.37;;
938;SDS011;456;53.584;9.968;2022-11-20T12:56:01;2.77;;;2.57;;
938;SDS011;456;53.584;9.968;2022-11-20T13:01:44;3.80;;;3.43;;
938;SDS011;456;53.584;9.968;2022-11-20T13:07:01;3.00;;;2.80;;
938;SDS011;456;53.584;9.968;2022-11-20T13:09:29;3.47;;;3.17;;
938;SDS011;456;53.584;9.968;2022-11-20T13:12:01;4.10;;;2.80;;
938;SDS011;456;53.584;9.968;2022-11-20T13:19:52;2.77;;;2.57;;
938;SDS011;456;53.584;9.968;2022-11-20T13:24:51;3.23;;;3.03;;
938;SDS011;456;53.584;9.968;2022-11-20T13:27:18;2.90;;;2.70;;
938;SDS011;456;53.584;9.968;2022-11-20T13:29:47;3.37;;;2.90;;
938;SDS011;456;53.584;9.968;2022-11-20T13:32:53;3.00;;;2.80;;
938;SDS011;456;53.584;9.968;2022-11-20T13:35:31;3.70;;;3.00;;
938;SDS011;456;53.584;9.968;2022-11-20T13:38:05;2.67;;;2.47;;
938;SDS011;456;53.584;9.968;2022-11-20T13:40:33;2.20;;;2.00;;
938;SDS011;456;53.584;9.968;2022-11-20T13:43:04;2.97;;;2.77;;
938;SDS011;456;53.584;9.968;2022-11-20T13:45:33;3.13;;;2.87;;
938;SDS011;456;53.584;9.968;2022-11-20T13:48:03;2.60;;;2.40;;
938;SDS011;456;53.584;9.968;2022-11-20T13:50:46;3.00;;;2.50;;
938;SDS011;456;53.584;9.968;2022-11-20T14:01:53;3.10;;;2.83;;
938;SDS011;456;53.584;9.968;2022-11-20T14:04:21;2.90;;;2.70;;
938;SDS011;456;53.584;9.968;2022-11-20T14:06:53;3.10;;;2.37;;
938;SDS011;456;53.584;9.968;2022-11-20T14:09:26;2.50;;;2.30;;
938;SDS011;456;53.584;9.968;2022-11-20T14:11:54;2.77;;;2.57;;
938;SDS011;456;53.584;9.968;2022-11-20T14:14:21;2.70;;;2.50;;
938;SDS011;456;53.584;9.968;2022-11-20T14:16:49;2.77;;;2.47;;
938;SDS011;456;53.584;9.968;2022-11-20T14:21:45;3.00;;;2.80;;
938;SDS011;456;53.584;9.968;2022-11-20T14:24:20;3.33;;;2.43;;
938;SDS011;456;53.584;9.968;2022-11-20T14:26:48;2.37;;;2.20;;
938;SDS011;456;53.584;9.968;2022-11-20T14:29:16;2.17;;;2.07;;
938;SDS011;456;53.584;9.968;2022-11-20T14:31:47;2.70;;;2.50;;
938;SDS011;456;53.584;9.968;2022-11-20T14:34:18;2.70;;;2.50;;
938;SDS011;456;53.584;9.968;2022-11-20T14:36:50;2.37;;;2.17;;
938;SDS011;456;53.584;9.968;2022-11-20T14:39:21;3.87;;;2.40;;
938;SDS011;456;53.584;9.968;2022-11-20T14:41:50;2.60;;;2.40;;
938;SDS011;456;53.584;9.968;2022-11-20T14:44:17;4.47;;;2.50;;
938;SDS011;456;53.584;9.968;2022-11-20T14:46:44;3.50;;;2.20;;
938;SDS011;456;53.584;9.968;2022-11-20T14:49:10;3.07;;;2.00;;
938;SDS011;456;53.584;9.968;2022-11-20T14:51:37;2.90;;;2.40;;
938;SDS011;456;53.584;9.968;2022-11-20T14:54:14;2.47;;;2.27;;
938;SDS011;456;53.584;9.968;2022-11-20T14:56:41;2.90;;;2.53;;
938;SDS011;456;53.584;9.968;2022-11-20T14:59:08;3.93;;;2.50;;
938;SDS011;456;53.584;9.968;2022-11-20T15:01:34;5.90;;;2.47;;
938;SDS011;456;53.584;9.968;2022-11-20T15:04:08;3.50;;;2.20;;
938;SDS011;456;53.584;9.968;2022-11-20T15:06:35;2.63;;;2.43;;
938;SDS011;456;53.584;9.968;2022-11-20T15:09:02;2.90;;;2.70;;
938;SDS011;456;53.584;9.968;2022-11-20T15:11:30;3.20;;;2.63;;
938;SDS011;456;53.584;9.968;2022-11-20T15:13:58;2.90;;;2.40;;
938;SDS011;456;53.584;9.968;2022-11-20T15:16:28;2.60;;;2.40;;
938;SDS011;456;53.584;9.968;2022-11-20T15:18:55;3.50;;;2.40;;
938;SDS011;456;53.584;9.968;2022-11-20T15:21:20;5.60;;;3.00;;
938;SDS011;456;53.584;9.968;2022-11-20T15:23:46;3.83;;;2.50;;
938;SDS011;456;53.584;9.968;2022-11-20T15:26:13;3.47;;;2.90;;
938;SDS011;456;53.584;9.968;2022-11-20T15:28:43;2.90;;;2.30;;
938;SDS011;456;53.584;9.968;2022-11-20T15:31:12;2.60;;;2.40;;
938;SDS011;456;53.584;9.968;2022-11-20T15:33:40;3.10;;;2.80;;
938;SDS011;456;53.584;9.968;2022-11-20T15:36:07;3.83;;;3.03;;
938;SDS011;456;53.584;9.968;2022-11-20T15:38:33;2.53;;;2.33;;
938;SDS011;456;53.584;9.968;2022-11-20T15:40:59;3.00;;;2.70;;
938;SDS011;456;53.584;9.968;2022-11-20T15:43:24;4.10;;;2.70;;
938;SDS011;456;53.584;9.968;2022-11-20T15:46:00;3.37;;;2.80;;
938;SDS011;456;53.584;9.968;2022-11-20T15:48:38;3.07;;;2.63;;
938;SDS011;456;53.584;9.968;2022-11-20T15:53:36;3.80;;;2.70;;
938;SDS011;456;53.584;9.968;2022-11-20T15:56:06;3.30;;;3.00;;
938;SDS011;456;53.584;9.968;2022-11-20T15:58:37;3.83;;;3.33;;
938;SDS011;456;53.584;9.968;2022-11-20T16:01:04;4.07;;;3.70;;
938;SDS011;456;53.584;9.968;2022-11-20T16:03:29;3.70;;;3.40;;
938;SDS011;456;53.584;9.968;2022-11-20T16:05:55;4.10;;;3.50;;
938;SDS011;456;53.584;9.968;2022-11-20T16:08:21;5.00;;;3.67;;
938;SDS011;456;53.584;9.968;2022-11-20T16:10:46;4.50;;;3.17;;
938;SDS011;456;53.584;9.968;2022-11-20T16:13:15;4.43;;;3.83;;
938;SDS011;456;53.584;9.968;2022-11-20T16:16:02;6.87;;;3.90;;
938;SDS011;456;53.584;9.968;2022-11-20T16:18:35;8.30;;;3.57;;
938;SDS011;456;53.584;9.968;2022-11-20T16:21:00;7.50;;;3.90;;
938;SDS011;456;53.584;9.968;2022-11-20T16:23:27;6.73;;;4.43;;
938;SDS011;456;53.584;9.968;2022-11-20T16:25:52;5.33;;;3.80;;
938;SDS011;456;53.584;9.968;2022-11-20T16:28:18;3.97;;;3.57;;
938;SDS011;456;53.584;9.968;2022-11-20T16:30:44;4.60;;;3.47;;
938;SDS011;456;53.584;9.968;2022-11-20T16:33:14;5.73;;;4.17;;
938;SDS011;456;53.584;9.968;2022-11-20T16:35:41;7.90;;;4.53;;
938;SDS011;456;53.584;9.968;2022-11-20T16:38:07;5.93;;;4.10;;
938;SDS011;456;53.584;9.968;2022-11-20T16:40:33;5.80;;;3.80;;
938;SDS011;456;53.584;9.968;2022-11-20T16:43:06;5.03;;;4.53;;
938;SDS011;456;53.584;9.968;2022-11-20T16:45:33;4.90;;;4.40;;
938;SDS011;456;53.584;9.968;2022-11-20T16:47:59;5.40;;;4.90;;
938;SDS011;456;53.584;9.968;2022-11-20T16:50:24;7.17;;;3.90;;
938;SDS011;456;53.584;9.968;2022-11-20T16:52:50;4.20;;;3.80;;
938;SDS011;456;53.584;9.968;2022-11-20T16:55:16;4.60;;;4.20;;
938;SDS011;456;53.584;9.968;2022-11-20T16:57:41;7.00;;;5.10;;
938;SDS011;456;53.584;9.968;2022-11-20T17:00:07;5.60;;;5.07;;
938;SDS011;456;53.584;9.968;2022-11-20T17:02:33;5.70;;;4.60;;
938;SDS011;456;53.584;9.968;2022-11-20T17:04:59;4.80;;;4.40;;
938;SDS011;456;53.584;9.968;2022-11-20T17:07:24;4.60;;;4.20;;
938;SDS011;456;53.584;9.968;2022-11-20T17:09:50;5.67;;;4.60;;
938;SDS011;456;53.584;9.968;2022-11-20T17:12:15;5.97;;;5.43;;
938;SDS011;456;53.584;9.968;2022-11-20T17:14:41;4.73;;;4.33;;
938;SDS011;456;53.584;9.968;2022-11-20T17:17:06;5.23;;;4.73;;
938;SDS011;456;53.584;9.968;2022-11-20T17:19:32;4.17;;;3.70;;
938;SDS011;456;53.584;9.968;2022-11-20T17:21:58;5.60;;;4.80;;
938;SDS011;456;53.584;9.968;2022-11-20T17:24:23;5.30;;;4.80;;